sensor_id;sensor_type;location;lat;lon;timestamp;P1;durP1;ratioP1;P2;durP2;ratioP2
21727;SDS011;11026;50.560;17.852;2023-08-06T00:04:30;1386.15;;;999.90;;
21727;SDS011;11026;50.560;17.852;2023-08-06T00:06:59;1275.30;;;964.42;;
21727;SDS011;11026;50.560;17.852;2023-08-06T00:09:26;1093.78;;;908.80;;
21727;SDS011;11026;50.560;17.852;2023-08-06T00:11:54;900.38;;;793.58;;
21727;SDS011;11026;50.560;17.852;2023-08-06T00:14:21;845.47;;;757.22;;
21727;SDS011;11026;50.560;17.852;2023-08-06T00:16:51;833.42;;;744.53;;
21727;SDS011;11026;50.560;17.852;2023-08-06T00:19:18;881.30;;;783.55;;
21727;SDS011;11026;50.560;17.852;2023-08-06T00:21:46;842.17;;;752.38;;
21727;SDS011;11026;50.560;17.852;2023-08-06T00:24:16;1367.60;;;989.58;;
21727;SDS011;11026;50.560;17.852;2023-08-06T00:26:43;1377.40;;;987.50;;
21727;SDS011;11026;50.560;17.852;2023-08-06T00:29:16;1129.55;;;918.47;;
21727;SDS011;11026;50.560;17.852;2023-08-06T00:31:44;893.15;;;796.63;;
21727;SDS011;11026;50.560;17.852;2023-08-06T00:34:13;882.78;;;788.70;;
21727;SDS011;11026;50.560;17.852;2023-08-06T00:36:43;831.10;;;744.17;;
21727;SDS011;11026;50.560;17.852;2023-08-06T00:39:10;823.00;;;735.95;;
21727;SDS011;11026;50.560;17.852;2023-08-06T00:41:38;823.88;;;736.20;;
21727;SDS011;11026;50.560;17.852;2023-08-06T00:44:07;826.63;;;722.08;;
21727;SDS011;11026;50.560;17.852;2023-08-06T00:46:35;811.88;;;721.90;;
21727;SDS011;11026;50.560;17.852;2023-08-06T00:49:03;838.20;;;748.20;;
21727;SDS011;11026;50.560;17.852;2023-08-06T00:51:37;849.15;;;747.83;;
21727;SDS011;11026;50.560;17.852;2023-08-06T00:54:05;758.65;;;669.05;;
21727;SDS011;11026;50.560;17.852;2023-08-06T00:56:33;1712.55;;;999.90;;
21727;SDS011;11026;50.560;17.852;2023-08-06T00:59:05;1871.55;;;999.90;;
21727;SDS011;11026;50.560;17.852;2023-08-06T01:01:33;1655.68;;;999.90;;
21727;SDS011;11026;50.560;17.852;2023-08-06T01:04:00;1334.45;;;968.67;;
21727;SDS011;11026;50.560;17.852;2023-08-06T01:06:49;1082.72;;;883.60;;
21727;SDS011;11026;50.560;17.852;2023-08-06T01:09:39;1349.75;;;928.67;;
21727;SDS011;11026;50.560;17.852;2023-08-06T01:15:53;1304.70;;;934.05;;
21727;SDS011;11026;50.560;17.852;2023-08-06T01:18:26;1254.13;;;937.78;;
21727;SDS011;11026;50.560;17.852;2023-08-06T01:20:53;1182.35;;;879.35;;
21727;SDS011;11026;50.560;17.852;2023-08-06T01:23:21;821.17;;;733.72;;
21727;SDS011;11026;50.560;17.852;2023-08-06T01:31:36;1393.35;;;999.90;;
21727;SDS011;11026;50.560;17.852;2023-08-06T01:34:24;1368.82;;;980.13;;
21727;SDS011;11026;50.560;17.852;2023-08-06T01:36:55;1420.13;;;972.53;;
21727;SDS011;11026;50.560;17.852;2023-08-06T01:39:23;1272.03;;;942.38;;
21727;SDS011;11026;50.560;17.852;2023-08-06T01:41:51;1047.63;;;836.08;;
21727;SDS011;11026;50.560;17.852;2023-08-06T01:44:19;1010.65;;;816.30;;
21727;SDS011;11026;50.560;17.852;2023-08-06T01:46:49;1042.90;;;862.95;;
21727;SDS011;11026;50.560;17.852;2023-08-06T01:49:16;1093.85;;;759.10;;
21727;SDS011;11026;50.560;17.852;2023-08-06T01:51:44;1148.28;;;835.78;;
21727;SDS011;11026;50.560;17.852;2023-08-06T01:54:11;811.47;;;725.47;;
21727;SDS011;11026;50.560;17.852;2023-08-06T01:56:39;1138.47;;;832.15;;
21727;SDS011;11026;50.560;17.852;2023-08-06T01:59:09;1576.80;;;999.90;;
21727;SDS011;11026;50.560;17.852;2023-08-06T02:01:38;1987.32;;;999.90;;
21727;SDS011;11026;50.560;17.852;2023-08-06T02:04:06;1777.78;;;988.35;;
21727;SDS011;11026;50.560;17.852;2023-08-06T02:06:33;1762.30;;;999.90;;
21727;SDS011;11026;50.560;17.852;2023-08-06T02:11:32;1593.47;;;982.28;;
21727;SDS011;11026;50.560;17.852;2023-08-06T02:13:59;989.58;;;837.55;;
21727;SDS011;11026;50.560;17.852;2023-08-06T02:16:29;1194.15;;;898.88;;
21727;SDS011;11026;50.560;17.852;2023-08-06T02:18:57;1117.90;;;900.80;;
21727;SDS011;11026;50.560;17.852;2023-08-06T02:21:25;1337.28;;;935.63;;
21727;SDS011;11026;50.560;17.852;2023-08-06T02:23:52;1027.63;;;795.65;;
21727;SDS011;11026;50.560;17.852;2023-08-06T02:26:31;847.80;;;744.78;;
21727;SDS011;11026;50.560;17.852;2023-08-06T02:28:59;1099.80;;;866.10;;
21727;SDS011;11026;50.560;17.852;2023-08-06T02:31:27;1032.45;;;743.78;;
21727;SDS011;11026;50.560;17.852;2023-08-06T02:33:57;936.70;;;718.17;;
21727;SDS011;11026;50.560;17.852;2023-08-06T02:36:25;1071.85;;;804.17;;
21727;SDS011;11026;50.560;17.852;2023-08-06T02:38:56;1779.50;;;998.00;;
21727;SDS011;11026;50.560;17.852;2023-08-06T02:41:23;1172.07;;;879.55;;
21727;SDS011;11026;50.560;17.852;2023-08-06T02:43:52;1515.53;;;925.00;;
21727;SDS011;11026;50.560;17.852;2023-08-06T02:46:21;1226.53;;;813.72;;
21727;SDS011;11026;50.560;17.852;2023-08-06T02:48:48;1413.85;;;911.72;;
21727;SDS011;11026;50.560;17.852;2023-08-06T02:51:16;995.28;;;840.83;;
21727;SDS011;11026;50.560;17.852;2023-08-06T02:53:45;1041.93;;;769.75;;
21727;SDS011;11026;50.560;17.852;2023-08-06T02:56:17;913.83;;;723.80;;
21727;SDS011;11026;50.560;17.852;2023-08-06T02:58:50;1029.28;;;797.83;;
21727;SDS011;11026;50.560;17.852;2023-08-06T03:01:18;960.53;;;798.47;;
21727;SDS011;11026;50.560;17.852;2023-08-06T03:03:45;1032.38;;;810.88;;
21727;SDS011;11026;50.560;17.852;2023-08-06T03:06:12;797.53;;;665.13;;
21727;SDS011;11026;50.560;17.852;2023-08-06T03:08:40;829.65;;;721.42;;
21727;SDS011;11026;50.560;17.852;2023-08-06T03:11:09;1903.70;;;971.83;;
21727;SDS011;11026;50.560;17.852;2023-08-06T03:13:36;834.03;;;716.20;;
21727;SDS011;11026;50.560;17.852;2023-08-06T03:16:04;1983.25;;;999.90;;
21727;SDS011;11026;50.560;17.852;2023-08-06T03:18:31;1304.22;;;938.45;;
21727;SDS011;11026;50.560;17.852;2023-08-06T03:21:00;1320.05;;;922.30;;
21727;SDS011;11026;50.560;17.852;2023-08-06T03:23:29;1093.50;;;877.80;;
21727;SDS011;11026;50.560;17.852;2023-08-06T03:26:00;1090.85;;;881.55;;
21727;SDS011;11026;50.560;17.852;2023-08-06T03:28:33;1179.45;;;914.50;;
21727;SDS011;11026;50.560;17.852;2023-08-06T03:31:02;1133.18;;;878.55;;
21727;SDS011;11026;50.560;17.852;2023-08-06T03:33:31;1313.65;;;916.58;;
21727;SDS011;11026;50.560;17.852;2023-08-06T03:35:58;1693.88;;;987.03;;
21727;SDS011;11026;50.560;17.852;2023-08-06T03:38:28;1199.40;;;893.72;;
21727;SDS011;11026;50.560;17.852;2023-08-06T03:40:55;1564.57;;;944.33;;
21727;SDS011;11026;50.560;17.852;2023-08-06T03:43:23;1999.90;;;999.90;;
21727;SDS011;11026;50.560;17.852;2023-08-06T03:45:51;1570.32;;;999.90;;
21727;SDS011;11026;50.560;17.852;2023-08-06T03:48:18;1371.05;;;921.90;;
21727;SDS011;11026;50.560;17.852;2023-08-06T03:50:47;1337.95;;;988.63;;
21727;SDS011;11026;50.560;17.852;2023-08-06T03:53:14;1829.93;;;999.90;;
21727;SDS011;11026;50.560;17.852;2023-08-06T03:55:42;1992.47;;;999.90;;
21727;SDS011;11026;50.560;17.852;2023-08-06T03:58:10;1596.68;;;999.90;;
21727;SDS011;11026;50.560;17.852;2023-08-06T04:00:38;1817.93;;;999.90;;
21727;SDS011;11026;50.560;17.852;2023-08-06T04:03:07;1999.90;;;997.92;;
21727;SDS011;11026;50.560;17.852;2023-08-06T04:05:35;1668.57;;;999.90;;
21727;SDS011;11026;50.560;17.852;2023-08-06T04:08:03;1429.63;;;921.90;;
21727;SDS011;11026;50.560;17.852;2023-08-06T04:10:31;1389.90;;;912.13;;
21727;SDS011;11026;50.560;17.852;2023-08-06T04:12:58;1688.95;;;999.90;;
21727;SDS011;11026;50.560;17.852;2023-08-06T04:15:27;1598.93;;;980.58;;
21727;SDS011;11026;50.560;17.852;2023-08-06T04:17:56;1984.65;;;999.90;;
21727;SDS011;11026;50.560;17.852;2023-08-06T04:20:25;1532.90;;;991.28;;
21727;SDS011;11026;50.560;17.852;2023-08-06T04:22:54;1384.70;;;954.15;;
21727;SDS011;11026;50.560;17.852;2023-08-06T04:25:22;1935.03;;;999.90;;
21727;SDS011;11026;50.560;17.852;2023-08-06T04:27:50;1589.93;;;998.10;;
21727;SDS011;11026;50.560;17.852;2023-08-06T04:30:18;1345.97;;;911.97;;
21727;SDS011;11026;50.560;17.852;2023-08-06T04:32:46;1280.45;;;958.92;;
21727;SDS011;11026;50.560;17.852;2023-08-06T04:35:13;1269.95;;;937.95;;
21727;SDS011;11026;50.560;17.852;2023-08-06T04:37:41;1736.47;;;999.90;;
21727;SDS011;11026;50.560;17.852;2023-08-06T04:40:09;1373.20;;;998.03;;
21727;SDS011;11026;50.560;17.852;2023-08-06T04:42:37;1999.90;;;999.90;;
21727;SDS011;11026;50.560;17.852;2023-08-06T04:45:04;1528.03;;;999.90;;
21727;SDS011;11026;50.560;17.852;2023-08-06T04:47:33;1780.70;;;999.90;;
21727;SDS011;11026;50.560;17.852;2023-08-06T04:50:03;1602.90;;;999.90;;
21727;SDS011;11026;50.560;17.852;2023-08-06T04:52:37;1993.75;;;999.90;;
21727;SDS011;11026;50.560;17.852;2023-08-06T04:55:05;1695.80;;;936.05;;
21727;SDS011;11026;50.560;17.852;2023-08-06T04:57:33;1732.82;;;999.75;;
21727;SDS011;11026;50.560;17.852;2023-08-06T05:00:01;1505.38;;;989.67;;
21727;SDS011;11026;50.560;17.852;2023-08-06T05:02:28;1344.15;;;959.55;;
21727;SDS011;11026;50.560;17.852;2023-08-06T05:04:55;1281.28;;;978.40;;
21727;SDS011;11026;50.560;17.852;2023-08-06T05:09:55;1999.90;;;999.90;;
21727;SDS011;11026;50.560;17.852;2023-08-06T05:12:23;1982.25;;;999.90;;
21727;SDS011;11026;50.560;17.852;2023-08-06T05:14:50;1695.47;;;989.47;;
21727;SDS011;11026;50.560;17.852;2023-08-06T05:17:18;1999.90;;;999.90;;
21727;SDS011;11026;50.560;17.852;2023-08-06T05:19:46;1774.25;;;999.90;;
21727;SDS011;11026;50.560;17.852;2023-08-06T05:22:14;1942.85;;;999.90;;
21727;SDS011;11026;50.560;17.852;2023-08-06T05:24:41;1536.82;;;988.70;;
21727;SDS011;11026;50.560;17.852;2023-08-06T05:27:15;1513.68;;;995.05;;
21727;SDS011;11026;50.560;17.852;2023-08-06T05:29:43;1335.90;;;997.97;;
21727;SDS011;11026;50.560;17.852;2023-08-06T05:32:11;1703.57;;;987.22;;
21727;SDS011;11026;50.560;17.852;2023-08-06T05:34:38;1626.45;;;994.25;;
21727;SDS011;11026;50.560;17.852;2023-08-06T05:37:06;1834.55;;;999.90;;
21727;SDS011;11026;50.560;17.852;2023-08-06T05:39:33;1817.78;;;999.90;;
21727;SDS011;11026;50.560;17.852;2023-08-06T05:42:01;1606.07;;;998.67;;
21727;SDS011;11026;50.560;17.852;2023-08-06T05:44:28;1999.90;;;999.90;;
21727;SDS011;11026;50.560;17.852;2023-08-06T05:46:56;1999.90;;;999.90;;
21727;SDS011;11026;50.560;17.852;2023-08-06T05:49:23;1999.90;;;999.90;;
21727;SDS011;11026;50.560;17.852;2023-08-06T05:51:50;1999.90;;;999.90;;
21727;SDS011;11026;50.560;17.852;2023-08-06T05:54:20;1386.65;;;962.85;;
21727;SDS011;11026;50.560;17.852;2023-08-06T05:56:48;1859.03;;;999.90;;
21727;SDS011;11026;50.560;17.852;2023-08-06T05:59:17;1999.90;;;999.90;;
21727;SDS011;11026;50.560;17.852;2023-08-06T06:01:45;1999.90;;;999.90;;
21727;SDS011;11026;50.560;17.852;2023-08-06T06:04:12;1999.90;;;999.90;;
21727;SDS011;11026;50.560;17.852;2023-08-06T06:06:52;1999.90;;;999.90;;
21727;SDS011;11026;50.560;17.852;2023-08-06T06:09:19;1999.90;;;999.90;;
21727;SDS011;11026;50.560;17.852;2023-08-06T06:11:49;1999.90;;;999.90;;
21727;SDS011;11026;50.560;17.852;2023-08-06T06:14:18;1999.90;;;999.90;;
21727;SDS011;11026;50.560;17.852;2023-08-06T06:16:52;1999.90;;;999.90;;
21727;SDS011;11026;50.560;17.852;2023-08-06T06:19:20;1999.90;;;999.90;;
21727;SDS011;11026;50.560;17.852;2023-08-06T06:21:47;1999.90;;;999.90;;
21727;SDS011;11026;50.560;17.852;2023-08-06T06:24:16;1999.90;;;999.90;;
21727;SDS011;11026;50.560;17.852;2023-08-06T06:26:43;1999.90;;;999.90;;
21727;SDS011;11026;50.560;17.852;2023-08-06T06:29:10;1999.90;;;999.90;;
21727;SDS011;11026;50.560;17.852;2023-08-06T06:31:38;1999.90;;;999.90;;
21727;SDS011;11026;50.560;17.852;2023-08-06T06:34:06;1999.90;;;999.90;;
21727;SDS011;11026;50.560;17.852;2023-08-06T06:36:39;1999.90;;;999.90;;
21727;SDS011;11026;50.560;17.852;2023-08-06T06:39:07;1999.90;;;999.90;;
21727;SDS011;11026;50.560;17.852;2023-08-06T06:41:35;1999.90;;;999.90;;
21727;SDS011;11026;50.560;17.852;2023-08-06T06:44:03;1999.90;;;999.90;;
21727;SDS011;11026;50.560;17.852;2023-08-06T06:46:30;1999.90;;;999.90;;
21727;SDS011;11026;50.560;17.852;2023-08-06T06:48:58;1999.90;;;999.90;;
21727;SDS011;11026;50.560;17.852;2023-08-06T06:51:25;1908.45;;;999.90;;
21727;SDS011;11026;50.560;17.852;2023-08-06T06:53:53;1999.90;;;999.90;;
21727;SDS011;11026;50.560;17.852;2023-08-06T06:56:26;1999.90;;;999.90;;
21727;SDS011;11026;50.560;17.852;2023-08-06T07:01:22;1999.90;;;999.90;;
21727;SDS011;11026;50.560;17.852;2023-08-06T07:03:49;1999.90;;;999.90;;
21727;SDS011;11026;50.560;17.852;2023-08-06T07:06:18;1999.90;;;999.90;;
21727;SDS011;11026;50.560;17.852;2023-08-06T07:08:47;1999.90;;;999.90;;
21727;SDS011;11026;50.560;17.852;2023-08-06T07:11:15;1999.90;;;999.90;;
21727;SDS011;11026;50.560;17.852;2023-08-06T07:13:43;1999.90;;;999.90;;
21727;SDS011;11026;50.560;17.852;2023-08-06T07:16:13;1999.90;;;999.90;;
21727;SDS011;11026;50.560;17.852;2023-08-06T07:18:40;1999.90;;;999.90;;
21727;SDS011;11026;50.560;17.852;2023-08-06T07:21:09;1999.90;;;999.90;;
21727;SDS011;11026;50.560;17.852;2023-08-06T07:23:37;1999.90;;;999.90;;
21727;SDS011;11026;50.560;17.852;2023-08-06T07:26:05;1999.90;;;999.90;;
21727;SDS011;11026;50.560;17.852;2023-08-06T07:28:32;1999.90;;;999.90;;
21727;SDS011;11026;50.560;17.852;2023-08-06T07:31:00;1999.90;;;999.90;;
21727;SDS011;11026;50.560;17.852;2023-08-06T07:33:31;1999.90;;;999.90;;
21727;SDS011;11026;50.560;17.852;2023-08-06T07:35:59;1999.90;;;999.90;;
21727;SDS011;11026;50.560;17.852;2023-08-06T07:38:29;1999.90;;;999.90;;
21727;SDS011;11026;50.560;17.852;2023-08-06T07:40:58;1999.90;;;999.90;;
21727;SDS011;11026;50.560;17.852;2023-08-06T07:43:29;1999.90;;;999.90;;
21727;SDS011;11026;50.560;17.852;2023-08-06T07:46:00;1999.90;;;999.90;;
21727;SDS011;11026;50.560;17.852;2023-08-06T07:48:31;1999.90;;;999.90;;
21727;SDS011;11026;50.560;17.852;2023-08-06T07:51:01;1999.90;;;999.90;;
21727;SDS011;11026;50.560;17.852;2023-08-06T07:53:29;1999.90;;;999.90;;
21727;SDS011;11026;50.560;17.852;2023-08-06T07:55:59;1999.90;;;999.90;;
21727;SDS011;11026;50.560;17.852;2023-08-06T07:58:29;1999.90;;;999.90;;
21727;SDS011;11026;50.560;17.852;2023-08-06T08:00:56;1999.90;;;999.90;;
21727;SDS011;11026;50.560;17.852;2023-08-06T08:03:26;1999.90;;;999.90;;
21727;SDS011;11026;50.560;17.852;2023-08-06T08:05:54;1999.90;;;999.90;;
21727;SDS011;11026;50.560;17.852;2023-08-06T08:08:25;1999.90;;;999.90;;
21727;SDS011;11026;50.560;17.852;2023-08-06T08:10:53;1999.90;;;999.90;;
21727;SDS011;11026;50.560;17.852;2023-08-06T08:13:22;1999.90;;;999.90;;
21727;SDS011;11026;50.560;17.852;2023-08-06T08:15:56;1999.90;;;999.90;;
21727;SDS011;11026;50.560;17.852;2023-08-06T08:18:24;1999.90;;;999.90;;
21727;SDS011;11026;50.560;17.852;2023-08-06T08:20:53;1999.90;;;999.90;;
21727;SDS011;11026;50.560;17.852;2023-08-06T08:23:20;1999.90;;;999.90;;
21727;SDS011;11026;50.560;17.852;2023-08-06T08:25:49;1999.90;;;999.90;;
21727;SDS011;11026;50.560;17.852;2023-08-06T08:28:17;1999.90;;;999.90;;
21727;SDS011;11026;50.560;17.852;2023-08-06T08:30:45;1999.90;;;999.90;;
21727;SDS011;11026;50.560;17.852;2023-08-06T08:33:12;1999.90;;;999.90;;
21727;SDS011;11026;50.560;17.852;2023-08-06T08:35:40;1999.90;;;999.90;;
21727;SDS011;11026;50.560;17.852;2023-08-06T08:38:08;1999.90;;;999.90;;
21727;SDS011;11026;50.560;17.852;2023-08-06T08:40:35;1999.90;;;999.90;;
21727;SDS011;11026;50.560;17.852;2023-08-06T08:43:09;1999.90;;;999.90;;
21727;SDS011;11026;50.560;17.852;2023-08-06T08:45:56;1999.90;;;999.90;;
21727;SDS011;11026;50.560;17.852;2023-08-06T08:48:26;1999.90;;;999.90;;
21727;SDS011;11026;50.560;17.852;2023-08-06T08:50:55;1999.90;;;999.90;;
21727;SDS011;11026;50.560;17.852;2023-08-06T08:53:25;1999.90;;;999.90;;
21727;SDS011;11026;50.560;17.852;2023-08-06T08:55:55;1999.90;;;999.90;;
21727;SDS011;11026;50.560;17.852;2023-08-06T08:58:22;1999.90;;;999.90;;
21727;SDS011;11026;50.560;17.852;2023-08-06T09:00:49;1971.30;;;999.90;;
21727;SDS011;11026;50.560;17.852;2023-08-06T09:03:19;1999.90;;;999.90;;
21727;SDS011;11026;50.560;17.852;2023-08-06T09:05:48;1999.90;;;999.90;;
21727;SDS011;11026;50.560;17.852;2023-08-06T09:08:21;1999.90;;;999.90;;
21727;SDS011;11026;50.560;17.852;2023-08-06T09:10:55;1999.90;;;999.90;;
21727;SDS011;11026;50.560;17.852;2023-08-06T09:13:24;1999.90;;;999.90;;
21727;SDS011;11026;50.560;17.852;2023-08-06T09:15:53;1999.90;;;999.90;;
21727;SDS011;11026;50.560;17.852;2023-08-06T09:18:26;1999.90;;;999.90;;
21727;SDS011;11026;50.560;17.852;2023-08-06T09:20:57;1999.90;;;999.90;;
21727;SDS011;11026;50.560;17.852;2023-08-06T09:23:28;1999.90;;;999.90;;
21727;SDS011;11026;50.560;17.852;2023-08-06T09:26:00;1999.90;;;999.90;;
21727;SDS011;11026;50.560;17.852;2023-08-06T09:28:38;1999.90;;;999.90;;
21727;SDS011;11026;50.560;17.852;2023-08-06T09:31:09;1999.90;;;999.90;;
21727;SDS011;11026;50.560;17.852;2023-08-06T09:33:38;1999.90;;;999.90;;
21727;SDS011;11026;50.560;17.852;2023-08-06T09:36:12;1999.90;;;999.90;;
21727;SDS011;11026;50.560;17.852;2023-08-06T09:41:08;1999.90;;;999.90;;
21727;SDS011;11026;50.560;17.852;2023-08-06T09:43:42;1999.90;;;999.90;;
21727;SDS011;11026;50.560;17.852;2023-08-06T09:46:13;1999.90;;;999.90;;
21727;SDS011;11026;50.560;17.852;2023-08-06T09:48:50;1999.90;;;999.90;;
21727;SDS011;11026;50.560;17.852;2023-08-06T09:51:17;1999.90;;;999.90;;
21727;SDS011;11026;50.560;17.852;2023-08-06T09:53:47;1999.90;;;999.90;;
21727;SDS011;11026;50.560;17.852;2023-08-06T09:56:15;1979.03;;;999.90;;
21727;SDS011;11026;50.560;17.852;2023-08-06T09:58:44;1999.90;;;999.90;;
21727;SDS011;11026;50.560;17.852;2023-08-06T10:01:17;1979.13;;;999.90;;
21727;SDS011;11026;50.560;17.852;2023-08-06T10:03:46;1999.90;;;999.90;;
21727;SDS011;11026;50.560;17.852;2023-08-06T10:06:15;1999.90;;;999.90;;
21727;SDS011;11026;50.560;17.852;2023-08-06T10:08:43;1999.90;;;999.90;;
21727;SDS011;11026;50.560;17.852;2023-08-06T10:11:11;1999.90;;;999.90;;
21727;SDS011;11026;50.560;17.852;2023-08-06T10:13:41;1999.90;;;999.90;;
21727;SDS011;11026;50.560;17.852;2023-08-06T10:16:09;1999.90;;;999.90;;
21727;SDS011;11026;50.560;17.852;2023-08-06T10:18:38;1999.90;;;999.90;;
21727;SDS011;11026;50.560;17.852;2023-08-06T10:21:11;1999.90;;;999.90;;
21727;SDS011;11026;50.560;17.852;2023-08-06T10:26:08;1999.90;;;999.90;;
21727;SDS011;11026;50.560;17.852;2023-08-06T10:28:36;1999.90;;;976.47;;
21727;SDS011;11026;50.560;17.852;2023-08-06T10:31:05;1999.90;;;999.90;;
21727;SDS011;11026;50.560;17.852;2023-08-06T10:33:46;1999.90;;;999.90;;
21727;SDS011;11026;50.560;17.852;2023-08-06T10:36:15;1999.90;;;999.90;;
21727;SDS011;11026;50.560;17.852;2023-08-06T10:38:49;1999.90;;;999.90;;
21727;SDS011;11026;50.560;17.852;2023-08-06T10:44:06;1999.90;;;999.90;;
21727;SDS011;11026;50.560;17.852;2023-08-06T10:46:37;1766.90;;;997.90;;
21727;SDS011;11026;50.560;17.852;2023-08-06T10:49:06;1999.90;;;975.47;;
21727;SDS011;11026;50.560;17.852;2023-08-06T10:51:34;1996.43;;;999.90;;
21727;SDS011;11026;50.560;17.852;2023-08-06T10:54:03;1999.90;;;999.90;;
21727;SDS011;11026;50.560;17.852;2023-08-06T10:56:39;1999.90;;;999.90;;
21727;SDS011;11026;50.560;17.852;2023-08-06T10:59:15;1999.90;;;999.90;;
21727;SDS011;11026;50.560;17.852;2023-08-06T11:01:46;1999.90;;;999.90;;
21727;SDS011;11026;50.560;17.852;2023-08-06T11:04:14;1999.90;;;999.90;;
21727;SDS011;11026;50.560;17.852;2023-08-06T11:06:45;1999.90;;;999.90;;
21727;SDS011;11026;50.560;17.852;2023-08-06T11:09:21;1999.90;;;999.90;;
21727;SDS011;11026;50.560;17.852;2023-08-06T11:11:49;1999.90;;;999.90;;
21727;SDS011;11026;50.560;17.852;2023-08-06T11:14:19;1999.90;;;999.90;;
21727;SDS011;11026;50.560;17.852;2023-08-06T11:16:48;1999.90;;;999.90;;
21727;SDS011;11026;50.560;17.852;2023-08-06T11:19:17;1999.90;;;999.90;;
21727;SDS011;11026;50.560;17.852;2023-08-06T11:21:45;1650.18;;;999.33;;
21727;SDS011;11026;50.560;17.852;2023-08-06T11:24:14;1999.90;;;999.90;;
21727;SDS011;11026;50.560;17.852;2023-08-06T11:26:42;1972.45;;;999.90;;
21727;SDS011;11026;50.560;17.852;2023-08-06T11:29:11;1999.90;;;999.90;;
21727;SDS011;11026;50.560;17.852;2023-08-06T11:31:40;1999.90;;;999.90;;
21727;SDS011;11026;50.560;17.852;2023-08-06T11:34:08;1999.90;;;999.90;;
21727;SDS011;11026;50.560;17.852;2023-08-06T11:36:36;1999.90;;;999.90;;
21727;SDS011;11026;50.560;17.852;2023-08-06T11:39:08;1999.90;;;999.90;;
21727;SDS011;11026;50.560;17.852;2023-08-06T11:41:36;1999.90;;;999.90;;
21727;SDS011;11026;50.560;17.852;2023-08-06T11:44:10;1999.90;;;999.90;;
21727;SDS011;11026;50.560;17.852;2023-08-06T11:46:56;1821.05;;;999.90;;
21727;SDS011;11026;50.560;17.852;2023-08-06T11:55:05;1999.90;;;999.90;;
21727;SDS011;11026;50.560;17.852;2023-08-06T12:00:05;1999.90;;;999.90;;
21727;SDS011;11026;50.560;17.852;2023-08-06T12:02:35;1999.90;;;999.90;;
21727;SDS011;11026;50.560;17.852;2023-08-06T12:05:05;1999.90;;;999.90;;
21727;SDS011;11026;50.560;17.852;2023-08-06T12:07:42;1999.90;;;999.90;;
21727;SDS011;11026;50.560;17.852;2023-08-06T12:10:14;1999.90;;;999.90;;
21727;SDS011;11026;50.560;17.852;2023-08-06T12:12:42;1999.90;;;999.90;;
21727;SDS011;11026;50.560;17.852;2023-08-06T12:15:10;1999.90;;;975.03;;
21727;SDS011;11026;50.560;17.852;2023-08-06T12:17:39;1999.90;;;999.90;;
21727;SDS011;11026;50.560;17.852;2023-08-06T12:20:14;1999.90;;;999.90;;
21727;SDS011;11026;50.560;17.852;2023-08-06T12:22:43;1987.50;;;999.90;;
21727;SDS011;11026;50.560;17.852;2023-08-06T12:25:12;1999.90;;;999.90;;
21727;SDS011;11026;50.560;17.852;2023-08-06T12:27:44;1999.90;;;999.90;;
21727;SDS011;11026;50.560;17.852;2023-08-06T12:30:12;1999.90;;;999.90;;
21727;SDS011;11026;50.560;17.852;2023-08-06T12:32:41;1993.07;;;999.78;;
21727;SDS011;11026;50.560;17.852;2023-08-06T12:35:09;1911.35;;;999.33;;
21727;SDS011;11026;50.560;17.852;2023-08-06T12:37:36;1999.90;;;999.90;;
21727;SDS011;11026;50.560;17.852;2023-08-06T12:40:05;1999.90;;;999.90;;
21727;SDS011;11026;50.560;17.852;2023-08-06T12:42:53;1999.90;;;999.90;;
21727;SDS011;11026;50.560;17.852;2023-08-06T12:45:22;1999.90;;;999.90;;
21727;SDS011;11026;50.560;17.852;2023-08-06T12:47:50;1999.90;;;999.90;;
21727;SDS011;11026;50.560;17.852;2023-08-06T12:50:18;1999.90;;;999.90;;
21727;SDS011;11026;50.560;17.852;2023-08-06T12:52:46;1999.90;;;999.90;;
21727;SDS011;11026;50.560;17.852;2023-08-06T12:55:13;1999.90;;;999.90;;
21727;SDS011;11026;50.560;17.852;2023-08-06T13:00:23;1999.90;;;999.90;;
21727;SDS011;11026;50.560;17.852;2023-08-06T13:02:52;1999.90;;;999.90;;
21727;SDS011;11026;50.560;17.852;2023-08-06T13:05:21;1999.90;;;999.90;;
21727;SDS011;11026;50.560;17.852;2023-08-06T13:07:48;1999.90;;;999.90;;
21727;SDS011;11026;50.560;17.852;2023-08-06T13:10:16;1999.90;;;999.90;;
21727;SDS011;11026;50.560;17.852;2023-08-06T13:12:45;1531.90;;;993.90;;
21727;SDS011;11026;50.560;17.852;2023-08-06T13:15:13;1999.90;;;999.90;;
21727;SDS011;11026;50.560;17.852;2023-08-06T13:17:42;1999.90;;;999.90;;
21727;SDS011;11026;50.560;17.852;2023-08-06T13:20:14;1999.90;;;999.90;;
21727;SDS011;11026;50.560;17.852;2023-08-06T13:22:46;1999.90;;;999.90;;
21727;SDS011;11026;50.560;17.852;2023-08-06T13:25:18;1999.90;;;999.90;;
21727;SDS011;11026;50.560;17.852;2023-08-06T13:27:46;1999.90;;;999.90;;
21727;SDS011;11026;50.560;17.852;2023-08-06T13:30:15;1999.90;;;997.95;;
21727;SDS011;11026;50.560;17.852;2023-08-06T13:32:45;1999.90;;;999.90;;
21727;SDS011;11026;50.560;17.852;2023-08-06T13:35:13;1999.90;;;962.65;;
21727;SDS011;11026;50.560;17.852;2023-08-06T13:37:40;1999.90;;;999.90;;
21727;SDS011;11026;50.560;17.852;2023-08-06T13:40:08;1999.90;;;999.90;;
21727;SDS011;11026;50.560;17.852;2023-08-06T13:42:38;1999.90;;;999.90;;
21727;SDS011;11026;50.560;17.852;2023-08-06T13:45:06;1999.90;;;999.90;;
21727;SDS011;11026;50.560;17.852;2023-08-06T13:47:40;1999.90;;;999.90;;
21727;SDS011;11026;50.560;17.852;2023-08-06T13:50:12;1999.90;;;999.90;;
21727;SDS011;11026;50.560;17.852;2023-08-06T13:52:40;1999.90;;;999.90;;
21727;SDS011;11026;50.560;17.852;2023-08-06T13:55:12;1999.90;;;999.90;;
21727;SDS011;11026;50.560;17.852;2023-08-06T13:57:40;1999.90;;;999.90;;
21727;SDS011;11026;50.560;17.852;2023-08-06T14:00:09;1999.90;;;999.90;;
21727;SDS011;11026;50.560;17.852;2023-08-06T14:02:37;1999.90;;;999.90;;
21727;SDS011;11026;50.560;17.852;2023-08-06T14:05:05;1999.90;;;999.90;;
21727;SDS011;11026;50.560;17.852;2023-08-06T14:07:37;1999.90;;;999.90;;
21727;SDS011;11026;50.560;17.852;2023-08-06T14:10:05;1999.90;;;999.90;;
21727;SDS011;11026;50.560;17.852;2023-08-06T14:12:35;1999.90;;;999.90;;
21727;SDS011;11026;50.560;17.852;2023-08-06T14:15:03;1999.90;;;999.90;;
21727;SDS011;11026;50.560;17.852;2023-08-06T14:17:37;1999.90;;;999.90;;
21727;SDS011;11026;50.560;17.852;2023-08-06T14:20:05;1999.90;;;999.90;;
21727;SDS011;11026;50.560;17.852;2023-08-06T14:22:36;1999.90;;;999.90;;
21727;SDS011;11026;50.560;17.852;2023-08-06T14:25:04;1999.90;;;999.90;;